MSC Regina — 3FGF9 — position and weather

sailwx.info

Track history (hours):
 
Tides and Currents Weather Stations Pressure Air Temp Water Temp Dewpoint Dewpoint Depression Visibility Wind Speed Wind Dir Waves Ship Positions

MSC Regina

Last reported at 2014-Sep-11 12:28 UTC. Time now 2014-Sep-15 02:04 UTC.
Position N 46°39' W 071°54'.

Length 259 m; draft 9.6 m.

Type: Ship (hazmat cat A). MMSI: 357332000.

Date/timePositionNaut miles runAvg speedWind from/ knotsBaromVisibWave heightAir tempDewpointWater temp
2014-Sep-11 12:28N 46°39' W 071°54'1314.2
2014-Sep-11 11:32N 46°32' W 072°11'1514.9
2014-Sep-11 10:34N 46°23' W 072°27'1211.7
2014-Sep-11 09:33N 46°16' W 072°41'1413.7
2014-Sep-11 08:31N 46°08' W 072°57'2713.0
2014-Sep-11 06:25N 45°47' W 073°22'1113.2
2014-Sep-11 05:33N 45°37' W 073°30'2 2.1
2014-Sep-11 04:31N 45°35' W 073°31'0 0.0
2014-Sep-11 03:31N 45°35' W 073°31'0 0.0
2014-Sep-11 02:31N 45°35' W 073°31'0 0.0
2014-Sep-11 01:31N 45°35' W 073°31'0 0.0
2014-Sep-11 00:31N 45°35' W 073°31'0 0.0
2014-Sep-10 23:31N 45°35' W 073°31'0 0.0
2014-Sep-10 22:31N 45°35' W 073°31'0 0.0
2014-Sep-10 21:31N 45°35' W 073°31'0 0.0
2014-Sep-10 20:31N 45°35' W 073°31'0 0.0
2014-Sep-10 19:31N 45°35' W 073°31'0 0.0
2014-Sep-10 18:31N 45°35' W 073°31'0 0.0
2014-Sep-10 17:31N 45°35' W 073°31'0 0.0
2014-Sep-10 16:31N 45°35' W 073°31'0 0.0
2014-Sep-10 15:31N 45°35' W 073°31'0 0.0
2014-Sep-10 14:31N 45°35' W 073°31'0 0.0
2014-Sep-10 13:31N 45°35' W 073°31'0 0.0
2014-Sep-10 12:31N 45°35' W 073°31'0 0.0
2014-Sep-10 11:31N 45°35' W 073°31'0 0.0
2014-Sep-10 10:31N 45°35' W 073°31'0 0.0
2014-Sep-10 09:31N 45°35' W 073°31'0 0.0
2014-Sep-10 08:31N 45°35' W 073°31'0 0.0
2014-Sep-10 07:31N 45°35' W 073°31'0 0.0
2014-Sep-10 06:31N 45°35' W 073°31'0 0.0
2014-Sep-10 05:31N 45°35' W 073°31'0 0.0
2014-Sep-10 04:31N 45°35' W 073°31'0 0.0
2014-Sep-10 03:31N 45°35' W 073°31'0 0.0
2014-Sep-10 02:31N 45°35' W 073°31'0 0.0
2014-Sep-10 01:31N 45°35' W 073°31'0 0.0
2014-Sep-10 00:31N 45°35' W 073°31'0 0.0
2014-Sep-09 23:31N 45°35' W 073°31'0 0.0
2014-Sep-09 22:31N 45°35' W 073°31'0 0.0
2014-Sep-09 21:31N 45°35' W 073°31'0 0.0
2014-Sep-09 20:31N 45°35' W 073°31'0 0.0
2014-Sep-09 19:31N 45°35' W 073°31'0 0.0
2014-Sep-09 18:31N 45°35' W 073°31'0 0.0
2014-Sep-09 17:31N 45°35' W 073°31'0 0.0
2014-Sep-09 16:31N 45°35' W 073°31'0 0.0
2014-Sep-09 15:31N 45°35' W 073°31'0 0.0
2014-Sep-09 14:31N 45°35' W 073°31'0 0.0
2014-Sep-09 13:31N 45°35' W 073°31'0 0.0
2014-Sep-09 12:31N 45°35' W 073°31'0 0.0
2014-Sep-09 11:31N 45°35' W 073°31'0 0.0
2014-Sep-09 10:31N 45°35' W 073°31'0 0.0
2014-Sep-09 09:31N 45°35' W 073°31'0 0.0
2014-Sep-09 08:31N 45°35' W 073°31'0 0.0
2014-Sep-09 07:31N 45°35' W 073°31'0 0.0
2014-Sep-09 06:31N 45°35' W 073°31'0 0.0
2014-Sep-09 05:31N 45°35' W 073°31'0 0.0
2014-Sep-09 04:31N 45°35' W 073°31'0 0.0
2014-Sep-09 03:31N 45°35' W 073°31'0 0.0
2014-Sep-09 02:31N 45°35' W 073°31'0 0.0
2014-Sep-09 01:31N 45°35' W 073°31'0 0.0
2014-Sep-09 00:31N 45°35' W 073°31'0 0.0
2014-Sep-08 23:31N 45°35' W 073°31'0 0.0
2014-Sep-08 22:33N 45°35' W 073°31'5 4.8
2014-Sep-08 21:33N 45°39' W 073°28'9 8.6
2014-Sep-08 20:33N 45°46' W 073°22'9 9.2
2014-Sep-08 19:33N 45°54' W 073°14'36 8.8
2014-Sep-08 15:25N 46°18' W 072°35'8 9.0
2014-Sep-08 14:33N 46°23' W 072°26'1110.7
2014-Sep-08 13:33N 46°29' W 072°14'1312.9
2014-Sep-08 12:33N 46°37' W 071°59'1413.0
2014-Sep-08 11:30N 46°39' W 071°39'82316.4
2014-Sep-06 09:28N 46°00' W 051°49'  
2014-Sep-02 05:23N 38°01' W 009°18'1518.6
2014-Sep-02 04:33N 37°55' W 009°00'8 7.7
2014-Sep-02 03:33N 37°56' W 008°51'0 0.0
2014-Sep-01 22:12N 37°56' W 008°51'0 0.0
2014-Sep-01 19:27N 37°56' W 008°51'  
Track history (hours):
 
Tides and Currents Weather Stations Pressure Air Temp Water Temp Dewpoint Dewpoint Depression Visibility Wind Speed Wind Dir Waves Ship Positions

MSC Regina

Last reported at 2014-Sep-11 12:28 UTC. Time now 2014-Sep-15 02:04 UTC.
Position N 46°39' W 071°54'.

Length 259 m; draft 9.6 m.

Type: Ship (hazmat cat A). MMSI: 357332000.

Date/timePositionNaut miles runAvg speedWind from/ knotsBaromVisibWave heightAir tempDewpointWater temp
2014-Sep-11 12:28N 46°39' W 071°54'1314.2
2014-Sep-11 11:32N 46°32' W 072°11'1514.9
2014-Sep-11 10:34N 46°23' W 072°27'1211.7
2014-Sep-11 09:33N 46°16' W 072°41'1413.7
2014-Sep-11 08:31N 46°08' W 072°57'2713.0
2014-Sep-11 06:25N 45°47' W 073°22'1113.2
2014-Sep-11 05:33N 45°37' W 073°30'2 2.1
2014-Sep-11 04:31N 45°35' W 073°31'0 0.0
2014-Sep-11 03:31N 45°35' W 073°31'0 0.0
2014-Sep-11 02:31N 45°35' W 073°31'0 0.0
2014-Sep-11 01:31N 45°35' W 073°31'0 0.0
2014-Sep-11 00:31N 45°35' W 073°31'0 0.0
2014-Sep-10 23:31N 45°35' W 073°31'0 0.0
2014-Sep-10 22:31N 45°35' W 073°31'0 0.0
2014-Sep-10 21:31N 45°35' W 073°31'0 0.0
2014-Sep-10 20:31N 45°35' W 073°31'0 0.0
2014-Sep-10 19:31N 45°35' W 073°31'0 0.0
2014-Sep-10 18:31N 45°35' W 073°31'0 0.0
2014-Sep-10 17:31N 45°35' W 073°31'0 0.0
2014-Sep-10 16:31N 45°35' W 073°31'0 0.0
2014-Sep-10 15:31N 45°35' W 073°31'0 0.0
2014-Sep-10 14:31N 45°35' W 073°31'0 0.0
2014-Sep-10 13:31N 45°35' W 073°31'0 0.0
2014-Sep-10 12:31N 45°35' W 073°31'0 0.0
2014-Sep-10 11:31N 45°35' W 073°31'0 0.0
2014-Sep-10 10:31N 45°35' W 073°31'0 0.0
2014-Sep-10 09:31N 45°35' W 073°31'0 0.0
2014-Sep-10 08:31N 45°35' W 073°31'0 0.0
2014-Sep-10 07:31N 45°35' W 073°31'0 0.0
2014-Sep-10 06:31N 45°35' W 073°31'0 0.0
2014-Sep-10 05:31N 45°35' W 073°31'0 0.0
2014-Sep-10 04:31N 45°35' W 073°31'0 0.0
2014-Sep-10 03:31N 45°35' W 073°31'0 0.0
2014-Sep-10 02:31N 45°35' W 073°31'0 0.0
2014-Sep-10 01:31N 45°35' W 073°31'0 0.0
2014-Sep-10 00:31N 45°35' W 073°31'0 0.0
2014-Sep-09 23:31N 45°35' W 073°31'0 0.0
2014-Sep-09 22:31N 45°35' W 073°31'0 0.0
2014-Sep-09 21:31N 45°35' W 073°31'0 0.0
2014-Sep-09 20:31N 45°35' W 073°31'0 0.0
2014-Sep-09 19:31N 45°35' W 073°31'0 0.0
2014-Sep-09 18:31N 45°35' W 073°31'0 0.0
2014-Sep-09 17:31N 45°35' W 073°31'0 0.0
2014-Sep-09 16:31N 45°35' W 073°31'0 0.0
2014-Sep-09 15:31N 45°35' W 073°31'0 0.0
2014-Sep-09 14:31N 45°35' W 073°31'0 0.0
2014-Sep-09 13:31N 45°35' W 073°31'0 0.0
2014-Sep-09 12:31N 45°35' W 073°31'0 0.0
2014-Sep-09 11:31N 45°35' W 073°31'0 0.0
2014-Sep-09 10:31N 45°35' W 073°31'0 0.0
2014-Sep-09 09:31N 45°35' W 073°31'0 0.0
2014-Sep-09 08:31N 45°35' W 073°31'0 0.0
2014-Sep-09 07:31N 45°35' W 073°31'0 0.0
2014-Sep-09 06:31N 45°35' W 073°31'0 0.0
2014-Sep-09 05:31N 45°35' W 073°31'0 0.0
2014-Sep-09 04:31N 45°35' W 073°31'0 0.0
2014-Sep-09 03:31N 45°35' W 073°31'0 0.0
2014-Sep-09 02:31N 45°35' W 073°31'0 0.0
2014-Sep-09 01:31N 45°35' W 073°31'0 0.0
2014-Sep-09 00:31N 45°35' W 073°31'0 0.0
2014-Sep-08 23:31N 45°35' W 073°31'0 0.0
2014-Sep-08 22:33N 45°35' W 073°31'5 4.8
2014-Sep-08 21:33N 45°39' W 073°28'9 8.6
2014-Sep-08 20:33N 45°46' W 073°22'9 9.2
2014-Sep-08 19:33N 45°54' W 073°14'36 8.8
2014-Sep-08 15:25N 46°18' W 072°35'8 9.0
2014-Sep-08 14:33N 46°23' W 072°26'1110.7
2014-Sep-08 13:33N 46°29' W 072°14'1312.9
2014-Sep-08 12:33N 46°37' W 071°59'1413.0
2014-Sep-08 11:30N 46°39' W 071°39'82316.4
2014-Sep-06 09:28N 46°00' W 051°49'  
2014-Sep-02 05:23N 38°01' W 009°18'1518.6
2014-Sep-02 04:33N 37°55' W 009°00'8 7.7
2014-Sep-02 03:33N 37°56' W 008°51'0 0.0
2014-Sep-01 22:12N 37°56' W 008°51'0 0.0
2014-Sep-01 19:27N 37°56' W 008°51'  

Dump ship's entire track history